Time;durP1;ratioP1;P1;durP2;ratioP2;P2;SDS_P1;SDS_P2;PMS_P1;PMS_P2;Temp;Humidity;BMP_temperature;BMP_pressure;BME280_temperature;BME280_humidity;BME280_pressure;Samples;Min_cycle;Max_cycle;Signal;HPM_P1;HPM_P2
2023/05/09 00:01:46;;;;;;;4.07;3.10;;;10.80;55.70;;;;;;4918373;29;20028;-60
2023/05/09 00:04:12;;;;;;;4.15;3.00;;;10.80;56.30;;;;;;4930416;29;20110;-60
2023/05/09 00:06:38;;;;;;;5.85;3.45;;;10.70;55.60;;;;;;4926770;29;20071;-60
2023/05/09 00:09:04;;;;;;;4.47;3.20;;;10.70;55.80;;;;;;4921465;29;20036;-59
2023/05/09 00:11:29;;;;;;;6.05;3.38;;;10.70;55.90;;;;;;4930478;29;20027;-68
2023/05/09 00:13:56;;;;;;;7.07;3.80;;;10.70;56.10;;;;;;4931828;29;20455;-67
2023/05/09 00:16:22;;;;;;;4.72;3.38;;;10.70;56.20;;;;;;4933235;29;20035;-60
2023/05/09 00:18:49;;;;;;;4.43;3.22;;;10.70;56.10;;;;;;4933698;29;20107;-60
2023/05/09 00:21:15;;;;;;;4.03;3.03;;;10.70;56.20;;;;;;4922803;29;20028;-59
2023/05/09 00:23:41;;;;;;;4.13;3.25;;;10.60;56.30;;;;;;4922551;29;20044;-59
2023/05/09 00:26:07;;;;;;;3.30;2.92;;;10.60;56.20;;;;;;4925858;29;20490;-67
2023/05/09 00:28:32;;;;;;;4.40;3.50;;;10.60;56.30;;;;;;4934664;29;20028;-69
2023/05/09 00:30:58;;;;;;;4.72;3.08;;;10.60;56.20;;;;;;4927588;29;20091;-67
2023/05/09 00:33:26;;;;;;;4.60;3.30;;;10.60;56.30;;;;;;4931966;29;20036;-65
2023/05/09 00:35:55;;;;;;;5.18;3.55;;;10.50;56.30;;;;;;4925709;29;20063;-68
2023/05/09 00:38:22;;;;;;;4.53;2.97;;;10.60;56.20;;;;;;4928995;29;20099;-60
2023/05/09 00:40:48;;;;;;;5.35;3.08;;;10.60;56.20;;;;;;4928370;29;20043;-60
2023/05/09 00:43:13;;;;;;;4.30;3.08;;;10.50;56.20;;;;;;4932468;29;20035;-69
2023/05/09 00:45:39;;;;;;;4.43;3.17;;;10.50;56.00;;;;;;4928530;29;20032;-66
2023/05/09 00:48:05;;;;;;;3.55;2.90;;;10.50;56.10;;;;;;4929159;29;20433;-59
2023/05/09 00:50:31;;;;;;;3.92;3.10;;;10.50;56.20;;;;;;4927738;29;20095;-59
2023/05/09 00:52:57;;;;;;;4.65;3.25;;;10.50;56.00;;;;;;4918892;29;20043;-60
2023/05/09 00:55:23;;;;;;;5.15;3.25;;;10.50;55.90;;;;;;4924925;29;20115;-59
2023/05/09 00:57:48;;;;;;;3.72;3.10;;;10.50;56.10;;;;;;4916533;29;20036;-60
2023/05/09 01:00:15;;;;;;;4.18;3.13;;;10.50;55.90;;;;;;4920814;29;20153;-60
2023/05/09 01:02:41;;;;;;;4.78;3.58;;;10.50;56.20;;;;;;4936933;29;20063;-66
2023/05/09 01:05:07;;;;;;;4.65;3.30;;;10.40;56.00;;;;;;4925009;29;20556;-67
2023/05/09 01:07:51;;;;;;;4.45;3.00;;;10.40;56.10;;;;;;4926874;29;20474;-58
2023/05/09 01:10:39;;;;;;;4.38;3.58;;;10.40;56.10;;;;;;4928222;29;20059;-57
2023/05/09 01:13:14;;;;;;;3.65;3.25;;;10.40;56.40;;;;;;4936713;29;20039;-58
2023/05/09 01:16:05;;;;;;;4.82;3.30;;;10.40;56.30;;;;;;4941189;29;20032;-58
2023/05/09 01:18:50;;;;;;;4.85;3.78;;;10.30;56.30;;;;;;4930890;28;20032;-58
2023/05/09 01:21:31;;;;;;;3.78;3.17;;;10.30;56.40;;;;;;4924004;29;20074;-53
2023/05/09 01:24:00;;;;;;;4.83;3.67;;;10.20;56.30;;;;;;4919309;29;20037;-52
2023/05/09 01:26:34;;;;;;;4.85;3.45;;;10.20;56.50;;;;;;4925555;29;20024;-55
2023/05/09 01:29:43;;;;;;;4.97;3.30;;;10.20;56.70;;;;;;4934886;29;20031;-53
2023/05/09 01:32:14;;;;;;;4.63;3.38;;;10.20;57.00;;;;;;4913464;29;20047;-58
2023/05/09 01:34:41;;;;;;;;;;;10.10;57.00;;;;;;4913708;29;20513;-58
2023/05/09 01:37:08;;;;;;;5.50;3.20;;;10.10;57.10;;;;;;4921510;29;19994;-49
2023/05/09 01:39:38;;;;;;;4.32;3.25;;;10.10;56.90;;;;;;4929134;29;20043;-53
2023/05/09 01:42:08;;;;;;;7.03;3.40;;;10.10;57.10;;;;;;4925435;29;20379;-57
2023/05/09 01:44:39;;;;;;;4.13;3.33;;;10.10;57.20;;;;;;4926886;29;20043;-55
2023/05/09 01:47:06;;;;;;;5.47;3.67;;;10.10;56.90;;;;;;4938694;29;20040;-60
2023/05/09 01:49:34;;;;;;;4.85;3.40;;;10.10;57.10;;;;;;4928151;29;20056;-65
2023/05/09 01:52:05;;;;;;;6.28;3.88;;;10.00;57.00;;;;;;4929221;29;20043;-58
2023/05/09 01:54:32;;;;;;;5.20;3.53;;;10.00;57.30;;;;;;4916470;29;20776;-59
2023/05/09 01:56:58;;;;;;;4.65;3.47;;;10.00;57.40;;;;;;4927548;29;20056;-59
2023/05/09 01:59:26;;;;;;;4.03;3.47;;;10.00;57.30;;;;;;4929322;29;20036;-59
2023/05/09 02:01:53;;;;;;;3.40;3.10;;;10.00;57.30;;;;;;4927815;29;20079;-67
2023/05/09 02:04:20;;;;;;;4.93;3.97;;;10.00;57.30;;;;;;4924517;29;20044;-65
2023/05/09 02:06:51;;;;;;;5.25;3.65;;;10.00;57.40;;;;;;4934230;29;20032;-57
2023/05/09 02:09:18;;;;;;;6.47;3.55;;;10.00;57.30;;;;;;4934659;29;20159;-57
2023/05/09 02:11:45;;;;;;;4.15;3.33;;;10.00;57.30;;;;;;4926533;29;20388;-57
2023/05/09 02:14:11;;;;;;;5.50;3.60;;;9.90;57.40;;;;;;4925272;29;20039;-59
2023/05/09 02:16:38;;;;;;;6.30;3.45;;;9.90;57.30;;;;;;4929936;29;20028;-67
2023/05/09 02:19:04;;;;;;;5.68;3.78;;;9.90;57.40;;;;;;4932560;29;20083;-66
2023/05/09 02:21:30;;;;;;;5.00;3.50;;;9.90;57.60;;;;;;4939171;29;20039;-58
2023/05/09 02:23:56;;;;;;;5.22;3.45;;;9.90;58.00;;;;;;4924888;29;20043;-59
2023/05/09 02:26:24;;;;;;;3.67;3.30;;;9.90;58.00;;;;;;4929491;29;20024;-68
2023/05/09 02:28:50;;;;;;;3.97;3.08;;;9.90;57.90;;;;;;4924255;29;20463;-64
2023/05/09 02:31:19;;;;;;;3.97;3.30;;;9.90;58.00;;;;;;4928754;29;20475;-58
2023/05/09 02:33:46;;;;;;;4.40;3.53;;;9.90;58.00;;;;;;4931893;29;20188;-59
2023/05/09 02:36:13;;;;;;;4.70;3.63;;;9.90;57.70;;;;;;4916078;29;20028;-60
2023/05/09 02:38:40;;;;;;;4.95;3.90;;;9.90;57.80;;;;;;4926783;29;20440;-59
2023/05/09 02:41:06;;;;;;;4.80;3.47;;;10.00;57.90;;;;;;4920310;29;20063;-59
2023/05/09 02:43:32;;;;;;;4.63;3.67;;;9.90;57.80;;;;;;4923331;29;20483;-60
2023/05/09 02:45:57;;;;;;;5.65;3.70;;;10.00;58.00;;;;;;4923603;29;20043;-60
2023/05/09 02:48:23;;;;;;;4.20;3.45;;;10.00;58.10;;;;;;4931307;29;20032;-57
2023/05/09 02:50:48;;;;;;;5.32;3.65;;;10.00;57.80;;;;;;4932163;29;20040;-57
2023/05/09 02:53:14;;;;;;;6.13;4.20;;;10.00;57.80;;;;;;4926553;29;20095;-57
2023/05/09 02:55:40;;;;;;;5.82;3.63;;;10.00;58.30;;;;;;4916183;29;20052;-57
2023/05/09 02:58:06;;;;;;;4.30;3.53;;;10.10;57.90;;;;;;4922570;29;20044;-59
2023/05/09 03:00:32;;;;;;;5.38;3.58;;;10.10;57.80;;;;;;4917244;29;20035;-58
2023/05/09 03:02:58;;;;;;;4.00;3.28;;;10.10;57.80;;;;;;4930368;29;20051;-66
2023/05/09 03:05:24;;;;;;;4.43;3.33;;;10.20;57.70;;;;;;4935385;29;20455;-66
2023/05/09 03:07:50;;;;;;;5.30;3.55;;;10.30;57.60;;;;;;4921581;29;20047;-56
2023/05/09 03:10:16;;;;;;;5.30;3.90;;;10.30;57.50;;;;;;4929021;29;20118;-52
2023/05/09 03:12:42;;;;;;;4.65;3.50;;;10.30;57.70;;;;;;4933352;29;20038;-53
2023/05/09 03:15:08;;;;;;;4.38;3.30;;;10.40;57.70;;;;;;4933391;29;20043;-50
2023/05/09 03:17:34;;;;;;;5.10;3.97;;;10.50;57.30;;;;;;4927983;29;20020;-56
2023/05/09 03:20:00;;;;;;;5.05;3.50;;;10.70;57.30;;;;;;4933950;29;20042;-54
2023/05/09 03:22:25;;;;;;;3.92;3.17;;;10.80;57.20;;;;;;4921203;29;20032;-57
2023/05/09 03:24:51;;;;;;;4.30;3.28;;;10.90;57.30;;;;;;4925719;29;20558;-57
2023/05/09 03:27:17;;;;;;;4.63;3.50;;;11.10;57.20;;;;;;4921691;29;20035;-59
2023/05/09 03:29:43;;;;;;;4.97;3.78;;;11.20;56.90;;;;;;4927347;29;20463;-59
2023/05/09 03:32:08;;;;;;;5.00;3.70;;;11.40;56.70;;;;;;4930123;29;20470;-68
2023/05/09 03:34:34;;;;;;;5.13;3.55;;;11.60;56.70;;;;;;4943551;29;20031;-67
2023/05/09 03:37:00;;;;;;;5.30;3.35;;;11.70;56.70;;;;;;4934964;29;20391;-53
2023/05/09 03:39:25;;;;;;;5.13;3.50;;;11.90;56.80;;;;;;4930461;29;20399;-54
2023/05/09 03:41:51;;;;;;;6.07;3.50;;;12.10;56.80;;;;;;4930023;29;20067;-64
2023/05/09 03:44:16;;;;;;;8.10;3.58;;;12.30;56.70;;;;;;4939618;29;20506;-66
2023/05/09 03:46:42;;;;;;;4.75;3.40;;;12.50;56.60;;;;;;4926023;29;20036;-52
2023/05/09 03:49:08;;;;;;;4.95;3.42;;;12.70;56.30;;;;;;4931513;29;20403;-54
2023/05/09 03:51:33;;;;;;;4.88;3.45;;;12.90;56.10;;;;;;4922745;29;20120;-59
2023/05/09 03:53:59;;;;;;;4.63;3.60;;;13.30;56.30;;;;;;4920416;29;20043;-59
2023/05/09 03:56:25;;;;;;;4.63;3.10;;;13.70;56.10;;;;;;4919385;29;20052;-60
2023/05/09 03:58:51;;;;;;;3.65;2.83;;;14.30;55.60;;;;;;4923956;29;20032;-60
2023/05/09 04:01:17;;;;;;;3.70;3.28;;;15.00;54.80;;;;;;4929343;29;20186;-57
2023/05/09 04:03:42;;;;;;;5.13;3.53;;;15.70;53.60;;;;;;4928792;29;20047;-57
2023/05/09 04:06:08;;;;;;;4.10;3.42;;;16.60;52.60;;;;;;4933098;29;20563;-66
2023/05/09 04:08:34;;;;;;;4.05;3.05;;;17.40;51.70;;;;;;4935093;29;20035;-66
2023/05/09 04:11:00;;;;;;;3.53;3.00;;;18.20;50.10;;;;;;4940461;29;20039;-66
2023/05/09 04:13:26;;;;;;;4.13;2.80;;;19.00;49.40;;;;;;4943751;29;20036;-68
2023/05/09 04:15:52;;;;;;;3.97;3.05;;;19.70;48.30;;;;;;4936460;29;20114;-66
2023/05/09 04:18:18;;;;;;;3.97;3.00;;;20.30;47.20;;;;;;4930870;29;20547;-67
2023/05/09 04:20:43;;;;;;;3.13;2.60;;;20.80;46.10;;;;;;4938562;29;20054;-68
2023/05/09 04:23:09;;;;;;;4.68;2.95;;;21.00;45.30;;;;;;4932594;29;20043;-57
2023/05/09 04:25:36;;;;;;;3.90;3.50;;;21.10;44.90;;;;;;4929463;29;20046;-57
2023/05/09 04:28:01;;;;;;;4.57;3.10;;;20.90;44.50;;;;;;4923891;29;20039;-58
2023/05/09 04:30:27;;;;;;;4.28;3.13;;;20.70;44.40;;;;;;4927442;29;20406;-58
2023/05/09 04:32:54;;;;;;;3.97;2.85;;;20.70;44.80;;;;;;4924733;29;20127;-58
2023/05/09 04:35:20;;;;;;;3.97;2.65;;;20.90;44.70;;;;;;4929710;29;20063;-58
2023/05/09 04:37:46;;;;;;;4.65;3.15;;;21.40;44.20;;;;;;4935897;29;20090;-54
2023/05/09 04:40:12;;;;;;;4.25;3.13;;;21.70;43.50;;;;;;4934195;29;20462;-57
2023/05/09 04:42:38;;;;;;;5.75;3.35;;;22.00;43.00;;;;;;4932931;29;20055;-58
2023/05/09 04:45:04;;;;;;;3.10;2.70;;;22.40;42.60;;;;;;4926453;29;20016;-58
2023/05/09 04:47:30;;;;;;;3.35;2.30;;;22.80;42.30;;;;;;4933918;29;20032;-60
2023/05/09 04:49:56;;;;;;;4.00;2.72;;;23.20;41.90;;;;;;4928356;29;20139;-58
2023/05/09 04:52:21;;;;;;;3.50;2.60;;;23.50;41.50;;;;;;4928343;29;20032;-59
2023/05/09 04:54:47;;;;;;;3.53;2.65;;;23.80;41.10;;;;;;4925794;29;23773;-60
2023/05/09 04:57:12;;;;;;;3.63;2.53;;;23.90;40.80;;;;;;4925913;29;20472;-58
2023/05/09 04:59:38;;;;;;;3.25;2.67;;;23.90;40.60;;;;;;4927072;29;20039;-58
2023/05/09 05:02:04;;;;;;;3.25;2.63;;;24.10;40.40;;;;;;4936115;29;20430;-64
2023/05/09 05:04:30;;;;;;;2.55;2.20;;;24.20;39.90;;;;;;4940146;29;20436;-64
2023/05/09 05:06:56;;;;;;;3.03;2.33;;;24.20;39.50;;;;;;4932286;29;20043;-58
2023/05/09 05:09:21;;;;;;;2.65;2.20;;;24.00;39.30;;;;;;4927150;29;20040;-58
2023/05/09 05:11:47;;;;;;;2.63;2.35;;;23.60;38.80;;;;;;4930931;29;20036;-55
2023/05/09 05:14:13;;;;;;;3.42;2.50;;;23.00;38.50;;;;;;4919297;29;20086;-54
2023/05/09 05:16:39;;;;;;;3.67;2.58;;;22.60;39.00;;;;;;4934248;29;20027;-57
2023/05/09 05:19:04;;;;;;;2.30;2.10;;;22.20;39.20;;;;;;4923234;29;20868;-58
2023/05/09 05:21:30;;;;;;;2.60;2.22;;;22.00;39.20;;;;;;4925139;29;20035;-58
2023/05/09 05:23:55;;;;;;;3.08;2.25;;;21.70;38.80;;;;;;4927117;29;20052;-58
2023/05/09 05:26:21;;;;;;;2.38;2.17;;;21.60;38.90;;;;;;4922516;29;20596;-57
2023/05/09 05:28:47;;;;;;;2.50;2.30;;;21.30;38.90;;;;;;4917188;29;20027;-58
2023/05/09 05:31:12;;;;;;;2.58;2.25;;;21.00;39.10;;;;;;4935358;29;20042;-66
2023/05/09 05:33:38;;;;;;;3.20;2.45;;;20.60;39.00;;;;;;4937815;29;20063;-65
2023/05/09 05:36:04;;;;;;;2.38;2.17;;;20.10;39.20;;;;;;4940387;29;20036;-60
2023/05/09 05:38:29;;;;;;;2.95;2.50;;;19.60;39.50;;;;;;4937102;29;20043;-59
2023/05/09 05:40:55;;;;;;;4.43;2.50;;;19.20;40.00;;;;;;4941345;29;20043;-65
2023/05/09 05:43:21;;;;;;;3.15;2.05;;;18.80;40.30;;;;;;4926120;29;20059;-58
2023/05/09 05:45:46;;;;;;;2.33;2.10;;;18.50;40.60;;;;;;4925541;29;20027;-59
2023/05/09 05:48:12;;;;;;;2.83;2.15;;;18.10;40.40;;;;;;4922965;29;20094;-58
2023/05/09 05:50:38;;;;;;;2.83;2.40;;;17.90;40.80;;;;;;4925869;29;20035;-58
2023/05/09 05:53:03;;;;;;;2.40;2.20;;;17.60;41.10;;;;;;4930371;29;20123;-56
2023/05/09 05:55:29;;;;;;;2.35;2.15;;;17.40;41.20;;;;;;4925586;29;20056;-57
2023/05/09 05:57:55;;;;;;;2.50;1.88;;;17.10;41.30;;;;;;4924694;29;20036;-58
2023/05/09 06:00:20;;;;;;;3.42;2.40;;;17.00;41.60;;;;;;4922562;29;20030;-59
2023/05/09 06:02:49;;;;;;;2.00;1.90;;;16.80;41.90;;;;;;4922329;29;20040;-59
2023/05/09 06:05:14;;;;;;;2.28;2.10;;;16.70;41.90;;;;;;4919534;29;20028;-58
2023/05/09 06:07:40;;;;;;;1.98;1.70;;;16.60;41.90;;;;;;4909591;29;21088;-57
2023/05/09 06:10:07;;;;;;;3.38;2.35;;;16.50;41.90;;;;;;4910131;29;20063;-58
2023/05/09 06:12:33;;;;;;;2.50;2.30;;;16.40;42.40;;;;;;4923422;29;20036;-58
2023/05/09 06:14:59;;;;;;;2.38;2.17;;;16.30;42.50;;;;;;4918296;29;20043;-59
2023/05/09 06:17:25;;;;;;;1.83;1.73;;;16.30;42.30;;;;;;4918065;29;20028;-58
2023/05/09 06:19:50;;;;;;;3.28;2.30;;;16.20;42.30;;;;;;4913814;29;20190;-59
2023/05/09 06:22:16;;;;;;;2.42;2.22;;;16.10;42.30;;;;;;4913479;29;20031;-59
2023/05/09 06:24:42;;;;;;;2.20;2.00;;;16.00;42.30;;;;;;4912293;29;20114;-59
2023/05/09 06:27:08;;;;;;;2.30;2.10;;;15.90;42.50;;;;;;4916666;29;20036;-58
2023/05/09 06:29:33;;;;;;;2.50;2.00;;;15.90;42.80;;;;;;4918779;29;20027;-58
2023/05/09 06:31:59;;;;;;;2.10;1.95;;;15.90;42.90;;;;;;4910115;29;20153;-59
2023/05/09 06:34:25;;;;;;;3.30;2.13;;;15.80;42.70;;;;;;4912990;29;20245;-59
2023/05/09 06:36:50;;;;;;;2.28;1.77;;;15.80;42.70;;;;;;4909991;29;20031;-59
2023/05/09 06:39:16;;;;;;;2.47;2.13;;;15.70;42.70;;;;;;4914264;29;20042;-60
2023/05/09 06:41:41;;;;;;;2.40;2.20;;;15.70;43.00;;;;;;4920044;29;20042;-58
2023/05/09 06:44:07;;;;;;;2.72;2.17;;;15.60;43.10;;;;;;4910617;29;20097;-57
2023/05/09 06:46:33;;;;;;;1.90;1.80;;;15.70;43.30;;;;;;4908531;29;20059;-59
2023/05/09 06:49:00;;;;;;;2.20;2.00;;;15.70;43.40;;;;;;4912882;29;20039;-58
2023/05/09 06:51:26;;;;;;;1.80;1.70;;;15.70;43.40;;;;;;4919820;29;20032;-58
2023/05/09 06:53:51;;;;;;;3.25;2.40;;;15.70;43.20;;;;;;4909587;29;20054;-58
2023/05/09 06:56:18;;;;;;;2.10;1.95;;;15.70;43.30;;;;;;4906326;29;20052;-59
2023/05/09 06:58:44;;;;;;;3.83;2.28;;;15.70;43.00;;;;;;4913153;29;20063;-58
2023/05/09 07:01:10;;;;;;;1.65;1.55;;;15.70;42.90;;;;;;4912179;29;22300;-58
2023/05/09 07:03:35;;;;;;;2.10;1.90;;;15.70;42.80;;;;;;4914237;29;20043;-59
2023/05/09 07:06:01;;;;;;;4.35;2.13;;;15.70;42.70;;;;;;4907979;29;20125;-59
2023/05/09 07:08:27;;;;;;;1.73;1.63;;;15.70;42.80;;;;;;4915645;29;20031;-58
2023/05/09 07:10:53;;;;;;;1.83;1.73;;;15.80;42.60;;;;;;4901576;29;20034;-58
2023/05/09 07:13:18;;;;;;;1.70;1.60;;;15.80;42.60;;;;;;4903818;29;20035;-59
2023/05/09 07:15:44;;;;;;;2.58;1.80;;;15.80;42.70;;;;;;4911094;29;20040;-57
2023/05/09 07:18:10;;;;;;;2.13;1.90;;;15.80;42.60;;;;;;4909151;29;20174;-57
2023/05/09 07:20:35;;;;;;;1.58;1.48;;;15.80;42.70;;;;;;4909072;29;20205;-56
2023/05/09 07:23:02;;;;;;;2.38;2.00;;;15.80;42.50;;;;;;4906353;29;20035;-58
2023/05/09 07:25:28;;;;;;;1.80;1.70;;;15.80;42.10;;;;;;4906338;29;20035;-59
2023/05/09 07:27:54;;;;;;;2.15;1.85;;;15.80;42.30;;;;;;4913256;29;20439;-58
2023/05/09 07:30:20;;;;;;;1.67;1.58;;;15.80;42.00;;;;;;4915416;29;20031;-58
2023/05/09 07:32:45;;;;;;;2.05;1.95;;;15.80;42.30;;;;;;4900125;29;20043;-59
2023/05/09 07:35:11;;;;;;;2.45;1.60;;;15.80;42.00;;;;;;4912059;29;20032;-62
2023/05/09 07:37:37;;;;;;;1.60;1.50;;;15.80;42.30;;;;;;4904507;29;20042;-59
2023/05/09 07:40:04;;;;;;;1.50;1.40;;;15.80;42.50;;;;;;4899911;29;20067;-59
2023/05/09 07:42:31;;;;;;;2.67;1.77;;;15.80;42.40;;;;;;4898341;29;20091;-60
2023/05/09 07:44:58;;;;;;;1.65;1.55;;;15.80;42.30;;;;;;4900681;29;20149;-58
2023/05/09 07:47:24;;;;;;;2.67;1.80;;;15.80;42.10;;;;;;4902963;29;20054;-60
2023/05/09 07:49:49;;;;;;;1.88;1.77;;;15.80;41.90;;;;;;4911171;29;24207;-60
2023/05/09 07:52:16;;;;;;;2.20;1.88;;;15.90;42.10;;;;;;4907050;29;20035;-60
2023/05/09 07:54:42;;;;;;;4.57;1.90;;;15.90;42.50;;;;;;4896363;29;20058;-59
2023/05/09 07:57:08;;;;;;;2.47;1.85;;;15.90;42.50;;;;;;4901523;29;20066;-58
2023/05/09 07:59:33;;;;;;;1.95;1.55;;;15.90;42.10;;;;;;4901533;29;20118;-59
2023/05/09 08:01:59;;;;;;;1.77;1.67;;;15.90;42.00;;;;;;4897699;29;20035;-57
2023/05/09 08:04:25;;;;;;;1.92;1.77;;;15.90;41.90;;;;;;4911529;29;20086;-59
2023/05/09 08:06:51;;;;;;;1.60;1.50;;;15.90;42.10;;;;;;4907436;29;20047;-59
2023/05/09 08:09:17;;;;;;;2.13;1.70;;;15.90;42.50;;;;;;4902504;29;20031;-59
2023/05/09 08:11:43;;;;;;;2.25;1.70;;;15.90;42.50;;;;;;4910072;29;20032;-57
2023/05/09 08:14:09;;;;;;;1.70;1.60;;;15.90;43.00;;;;;;4912199;29;20035;-60
2023/05/09 08:16:35;;;;;;;3.00;1.80;;;16.00;42.90;;;;;;4911297;29;20646;-60
2023/05/09 08:19:01;;;;;;;2.10;1.70;;;16.00;43.50;;;;;;4910178;29;20039;-57
2023/05/09 08:21:27;;;;;;;1.90;1.60;;;16.10;42.70;;;;;;4902915;29;20035;-59
2023/05/09 08:23:52;;;;;;;3.83;2.03;;;16.10;42.70;;;;;;4903243;29;20086;-59
2023/05/09 08:26:18;;;;;;;1.95;1.65;;;16.20;42.50;;;;;;4903145;29;20170;-59
2023/05/09 08:28:44;;;;;;;1.80;1.70;;;16.20;42.10;;;;;;4904207;29;20031;-58
2023/05/09 08:31:10;;;;;;;1.85;1.75;;;16.20;42.10;;;;;;4907365;29;20036;-58
2023/05/09 08:33:35;;;;;;;1.60;1.50;;;16.20;41.80;;;;;;4900311;29;20043;-58
2023/05/09 08:36:01;;;;;;;1.83;1.70;;;16.20;41.80;;;;;;4904174;29;20051;-59
2023/05/09 08:38:27;;;;;;;1.58;1.48;;;16.20;41.70;;;;;;4906654;29;20036;-59
2023/05/09 08:40:59;;;;;;;2.55;1.67;;;16.20;41.80;;;;;;4902737;29;20040;-60
2023/05/09 08:43:27;;;;;;;1.90;1.73;;;16.20;41.80;;;;;;4902289;29;20483;-59
2023/05/09 08:45:59;;;;;;;1.90;1.70;;;16.10;41.80;;;;;;4898446;29;20095;-59
2023/05/09 08:48:25;;;;;;;2.95;1.80;;;16.00;42.50;;;;;;4902698;29;20027;-60
2023/05/09 08:50:52;;;;;;;1.77;1.67;;;16.00;42.60;;;;;;4895504;29;20150;-60
2023/05/09 08:53:19;;;;;;;2.15;1.95;;;16.00;42.30;;;;;;4903187;29;20047;-59
2023/05/09 08:55:44;;;;;;;2.10;1.90;;;16.00;42.10;;;;;;4904659;29;20597;-59
2023/05/09 08:58:12;;;;;;;3.22;1.88;;;16.00;41.80;;;;;;4906614;29;20114;-60
2023/05/09 09:00:40;;;;;;;1.85;1.75;;;16.00;41.90;;;;;;4902161;29;20162;-59
2023/05/09 09:03:06;;;;;;;3.20;2.03;;;16.00;42.20;;;;;;4905745;29;20044;-59
2023/05/09 09:05:36;;;;;;;1.65;1.55;;;16.00;42.60;;;;;;4905356;29;20046;-59
2023/05/09 09:08:04;;;;;;;2.20;2.00;;;16.00;42.60;;;;;;4899780;29;20771;-59
2023/05/09 09:10:31;;;;;;;2.55;2.00;;;16.10;42.50;;;;;;4905271;29;20059;-59
2023/05/09 09:12:59;;;;;;;2.65;1.98;;;16.10;42.30;;;;;;4894721;29;20142;-59
2023/05/09 09:15:29;;;;;;;2.28;1.67;;;16.10;42.40;;;;;;4888697;29;20040;-58
2023/05/09 09:17:57;;;;;;;2.13;1.90;;;16.20;42.30;;;;;;4891842;29;20101;-58
2023/05/09 09:20:26;;;;;;;2.40;1.83;;;16.20;42.00;;;;;;4898928;29;20965;-59
2023/05/09 09:22:57;;;;;;;2.15;1.77;;;16.30;42.30;;;;;;4903888;29;20131;-58
2023/05/09 09:25:23;;;;;;;1.98;1.80;;;16.30;42.00;;;;;;4908240;29;20036;-58
2023/05/09 09:27:49;;;;;;;2.55;1.80;;;16.40;42.10;;;;;;4900405;29;20071;-58
2023/05/09 09:30:15;;;;;;;1.70;1.60;;;16.40;42.50;;;;;;4891257;29;20031;-59
2023/05/09 09:32:41;;;;;;;2.50;2.10;;;16.50;42.10;;;;;;4904063;29;20169;-58
2023/05/09 09:35:08;;;;;;;1.92;1.65;;;16.60;41.90;;;;;;4900866;29;20161;-59
2023/05/09 09:37:39;;;;;;;2.22;2.03;;;16.60;41.60;;;;;;4899091;29;20035;-57
2023/05/09 09:40:08;;;;;;;1.95;1.85;;;16.70;41.50;;;;;;4902360;29;20475;-58
2023/05/09 09:42:47;;;;;;;2.38;2.17;;;16.70;41.70;;;;;;4903273;29;20036;-57
2023/05/09 09:45:16;;;;;;;2.28;1.80;;;16.70;41.40;;;;;;4885996;29;20064;-57
2023/05/09 09:47:42;;;;;;;2.60;1.70;;;16.80;41.50;;;;;;4898167;29;20083;-57
2023/05/09 09:50:13;;;;;;;2.08;1.80;;;16.80;41.30;;;;;;4908149;29;20043;-57
2023/05/09 09:52:54;;;;;;;1.77;1.67;;;16.80;42.20;;;;;;4907573;29;20087;-59
2023/05/09 09:55:22;;;;;;;2.10;1.90;;;16.90;41.80;;;;;;4901260;29;21616;-57
2023/05/09 09:57:49;;;;;;;2.35;1.60;;;16.90;41.90;;;;;;4902899;29;20118;-59
2023/05/09 10:00:17;;;;;;;1.48;1.42;;;16.90;41.90;;;;;;4915313;29;20055;-58
2023/05/09 10:03:01;;;;;;;3.22;1.55;;;17.00;41.70;;;;;;4909122;29;20043;-59
2023/05/09 10:05:29;;;;;;;1.65;1.55;;;17.00;41.50;;;;;;4908331;29;20086;-56
2023/05/09 10:07:55;;;;;;;1.70;1.60;;;17.00;41.40;;;;;;4907465;29;20031;-58
2023/05/09 10:10:21;;;;;;;3.25;2.17;;;17.00;41.00;;;;;;4912198;29;20038;-59
2023/05/09 10:12:49;;;;;;;3.38;1.70;;;17.00;40.80;;;;;;4910084;29;20114;-58
2023/05/09 10:15:20;;;;;;;2.05;1.77;;;17.10;40.70;;;;;;4906756;29;20125;-55
2023/05/09 10:17:46;;;;;;;;;;;17.10;40.40;;;;;;4910573;29;21686;-58
2023/05/09 10:20:12;;;;;;;1.83;1.67;;;17.10;40.20;;;;;;4908711;29;19915;-58
2023/05/09 10:22:39;;;;;;;2.00;1.80;;;17.10;40.70;;;;;;4916902;29;20032;-58
2023/05/09 10:25:12;;;;;;;2.05;1.85;;;17.20;40.50;;;;;;4918835;29;20550;-60
2023/05/09 10:27:43;;;;;;;2.60;1.73;;;17.20;40.20;;;;;;4913369;29;20126;-59
2023/05/09 10:30:13;;;;;;;;;;;17.20;40.20;;;;;;4919744;29;20106;-59
2023/05/09 10:32:50;;;;;;;2.35;2.10;;;17.20;40.40;;;;;;4898685;29;19919;-59
2023/05/09 10:35:17;;;;;;;1.88;1.77;;;17.20;40.40;;;;;;4917647;29;20040;-60
2023/05/09 10:37:45;;;;;;;2.45;2.10;;;17.20;40.40;;;;;;4916907;29;20034;-60
2023/05/09 10:40:14;;;;;;;2.47;1.80;;;17.20;40.20;;;;;;4914494;29;20047;-59
2023/05/09 10:42:43;;;;;;;1.90;1.80;;;17.30;40.40;;;;;;4917824;29;20091;-58
2023/05/09 10:45:11;;;;;;;2.40;1.98;;;17.30;40.60;;;;;;4917837;29;20030;-59
2023/05/09 10:47:38;;;;;;;2.42;2.00;;;17.30;40.60;;;;;;4916203;29;20038;-60
2023/05/09 10:50:07;;;;;;;2.15;2.00;;;17.30;40.30;;;;;;4923110;29;20024;-60
2023/05/09 10:52:33;;;;;;;2.20;1.80;;;17.30;40.20;;;;;;4922881;29;21013;-60
2023/05/09 10:55:00;;;;;;;3.85;2.20;;;17.30;40.20;;;;;;4916348;29;20036;-60
2023/05/09 10:57:28;;;;;;;1.92;1.75;;;17.30;40.20;;;;;;4917484;29;20050;-60
2023/05/09 10:59:55;;;;;;;2.10;1.85;;;17.30;40.50;;;;;;4922039;29;20051;-59
2023/05/09 11:02:27;;;;;;;2.17;2.08;;;17.30;40.60;;;;;;4909312;29;20036;-60
2023/05/09 11:05:13;;;;;;;1.83;1.73;;;17.30;40.50;;;;;;4912400;29;20055;-59
2023/05/09 11:07:39;;;;;;;1.77;1.67;;;17.30;40.50;;;;;;4904116;29;20042;-60
2023/05/09 11:10:13;;;;;;;1.60;1.50;;;17.30;40.50;;;;;;4914062;29;20039;-58
2023/05/09 11:12:59;;;;;;;2.10;1.85;;;17.30;40.40;;;;;;4915071;29;20028;-58
2023/05/09 11:15:26;;;;;;;1.85;1.75;;;17.30;40.50;;;;;;4909688;29;20024;-58
2023/05/09 11:18:09;;;;;;;2.80;1.85;;;17.30;40.50;;;;;;4901194;29;20427;-59
2023/05/09 11:20:42;;;;;;;2.00;1.80;;;17.40;40.30;;;;;;4905433;29;20044;-58
2023/05/09 11:23:10;;;;;;;2.60;2.08;;;17.40;40.50;;;;;;4906686;29;20103;-59
2023/05/09 11:25:38;;;;;;;2.17;1.90;;;17.40;40.80;;;;;;4885723;29;20498;-60
2023/05/09 11:28:05;;;;;;;2.50;1.98;;;17.40;40.50;;;;;;4907799;29;20170;-60
2023/05/09 11:30:42;;;;;;;2.20;1.90;;;17.40;40.60;;;;;;4907074;29;20538;-59
2023/05/09 11:33:34;;;;;;;3.25;1.75;;;17.40;40.60;;;;;;4908821;29;20067;-58
2023/05/09 11:36:19;;;;;;;1.85;1.42;;;17.40;40.30;;;;;;4896242;29;20050;-59
2023/05/09 11:38:46;;;;;;;2.25;1.50;;;17.50;40.40;;;;;;4900081;29;20376;-58
2023/05/09 11:41:12;;;;;;;1.95;1.50;;;17.50;40.40;;;;;;4900584;29;20071;-58
2023/05/09 11:43:38;;;;;;;2.80;1.75;;;17.40;40.10;;;;;;4902045;29;20082;-58
2023/05/09 11:46:04;;;;;;;2.45;1.60;;;17.40;40.00;;;;;;4902413;29;21270;-57
2023/05/09 11:48:36;;;;;;;2.03;1.52;;;17.40;40.20;;;;;;4901567;29;20035;-60
2023/05/09 11:51:02;;;;;;;2.60;2.00;;;17.30;40.30;;;;;;4902284;29;20047;-60
2023/05/09 11:53:28;;;;;;;1.48;1.38;;;17.30;40.20;;;;;;4907945;29;20042;-59
2023/05/09 11:55:54;;;;;;;1.83;1.70;;;17.30;40.00;;;;;;4907474;29;20055;-59
2023/05/09 11:58:20;;;;;;;1.40;1.30;;;17.30;40.10;;;;;;4907345;29;20086;-59
2023/05/09 12:00:46;;;;;;;2.17;1.67;;;17.30;39.90;;;;;;4911398;29;20064;-59
2023/05/09 12:03:12;;;;;;;1.63;1.52;;;17.30;40.10;;;;;;4900170;29;20387;-59
2023/05/09 12:05:41;;;;;;;4.10;2.13;;;17.40;40.60;;;;;;4912191;29;20121;-59
2023/05/09 12:08:08;;;;;;;1.77;1.65;;;17.30;40.80;;;;;;4911530;29;20028;-59
2023/05/09 12:10:37;;;;;;;1.95;1.75;;;17.30;40.20;;;;;;4907413;29;20040;-59
2023/05/09 12:13:03;;;;;;;1.70;1.60;;;17.20;40.20;;;;;;4915128;29;20482;-59
2023/05/09 12:15:29;;;;;;;1.70;1.60;;;17.10;40.40;;;;;;4909936;29;20047;-58
2023/05/09 12:18:06;;;;;;;1.75;1.60;;;17.10;40.60;;;;;;4908249;29;20043;-57
2023/05/09 12:20:42;;;;;;;2.03;1.83;;;17.10;40.80;;;;;;4908255;29;20046;-57
2023/05/09 12:23:10;;;;;;;1.75;1.65;;;17.10;40.70;;;;;;4902042;29;20052;-59
2023/05/09 12:25:36;;;;;;;1.95;1.80;;;17.00;40.60;;;;;;4910625;29;20134;-59
2023/05/09 12:28:02;;;;;;;2.65;2.03;;;17.00;40.90;;;;;;4907595;29;20042;-58
2023/05/09 12:30:27;;;;;;;1.90;1.80;;;16.90;40.30;;;;;;4910427;29;20077;-59
2023/05/09 12:32:54;;;;;;;1.90;1.80;;;16.80;40.00;;;;;;4909546;29;20036;-59
2023/05/09 12:35:22;;;;;;;1.27;1.23;;;16.80;39.90;;;;;;4909201;29;20035;-58
2023/05/09 12:37:56;;;;;;;2.08;1.67;;;16.80;39.80;;;;;;4900047;29;21532;-59
2023/05/09 12:40:22;;;;;;;2.83;1.95;;;16.90;39.90;;;;;;4911869;29;20039;-59
2023/05/09 12:42:48;;;;;;;2.20;2.00;;;16.90;40.30;;;;;;4917156;29;20561;-59
2023/05/09 12:45:14;;;;;;;1.45;1.42;;;16.90;40.90;;;;;;4902919;29;20032;-59
2023/05/09 12:47:44;;;;;;;1.95;1.83;;;16.90;41.10;;;;;;4912958;29;20024;-59
2023/05/09 12:50:13;;;;;;;1.50;1.40;;;16.90;40.80;;;;;;4908660;29;21092;-59